sensor_id;sensor_type;location;lat;lon;timestamp;pressure;altitude;pressure_sealevel;temperature;humidity
71344;BME280;59146;43.850;25.948;2023-02-18T00:02:02;101679.47;;;7.56;56.21
71344;BME280;59146;43.850;25.948;2023-02-18T00:04:27;101658.56;;;7.59;55.89
71344;BME280;59146;43.850;25.948;2023-02-18T00:06:53;101682.94;;;7.84;55.35
71344;BME280;59146;43.850;25.948;2023-02-18T00:09:18;101638.44;;;7.65;55.33
71344;BME280;59146;43.850;25.948;2023-02-18T00:11:44;101671.78;;;8.08;54.87
71344;BME280;59146;43.850;25.948;2023-02-18T00:14:14;101648.84;;;7.93;54.71
71344;BME280;59146;43.850;25.948;2023-02-18T00:16:40;101636.78;;;7.90;54.82
71344;BME280;59146;43.850;25.948;2023-02-18T00:19:07;101655.66;;;7.97;54.88
71344;BME280;59146;43.850;25.948;2023-02-18T00:21:35;101615.53;;;7.49;55.50
71344;BME280;59146;43.850;25.948;2023-02-18T00:24:01;101585.28;;;7.46;54.63
71344;BME280;59146;43.850;25.948;2023-02-18T00:26:27;101529.75;;;7.21;54.53
71344;BME280;59146;43.850;25.948;2023-02-18T00:28:53;101628.09;;;7.91;54.61
71344;BME280;59146;43.850;25.948;2023-02-18T00:31:28;101552.59;;;7.39;54.42
71344;BME280;59146;43.850;25.948;2023-02-18T00:33:54;101579.69;;;7.58;54.67
71344;BME280;59146;43.850;25.948;2023-02-18T00:36:21;101574.97;;;7.71;54.29
71344;BME280;59146;43.850;25.948;2023-02-18T00:38:49;101606.41;;;8.17;53.49
71344;BME280;59146;43.850;25.948;2023-02-18T00:41:15;101614.22;;;8.17;53.36
71344;BME280;59146;43.850;25.948;2023-02-18T00:43:41;101532.28;;;7.78;53.24
71344;BME280;59146;43.850;25.948;2023-02-18T00:46:07;101553.09;;;8.04;52.97
71344;BME280;59146;43.850;25.948;2023-02-18T00:48:33;101558.47;;;8.24;52.51
71344;BME280;59146;43.850;25.948;2023-02-18T00:51:00;101537.47;;;8.04;52.70
71344;BME280;59146;43.850;25.948;2023-02-18T00:53:29;101428.81;;;7.61;52.00
71344;BME280;59146;43.850;25.948;2023-02-18T00:55:54;101537.59;;;8.26;51.92
71344;BME280;59146;43.850;25.948;2023-02-18T00:58:20;101565.25;;;8.54;51.98
71344;BME280;59146;43.850;25.948;2023-02-18T01:00:47;101597.06;;;8.62;51.92
71344;BME280;59146;43.850;25.948;2023-02-18T01:03:13;101580.59;;;8.62;51.86
71344;BME280;59146;43.850;25.948;2023-02-18T01:05:39;101548.13;;;8.47;51.69
71344;BME280;59146;43.850;25.948;2023-02-18T01:08:06;101508.94;;;8.27;51.52
71344;BME280;59146;43.850;25.948;2023-02-18T01:10:33;101572.13;;;8.55;51.51
71344;BME280;59146;43.850;25.948;2023-02-18T01:13:00;101491.44;;;8.06;52.00
71344;BME280;59146;43.850;25.948;2023-02-18T01:15:29;101534.97;;;8.27;51.94
71344;BME280;59146;43.850;25.948;2023-02-18T01:17:54;101488.41;;;7.93;52.35
71344;BME280;59146;43.850;25.948;2023-02-18T01:20:20;101485.81;;;7.92;52.32
71344;BME280;59146;43.850;25.948;2023-02-18T01:22:46;101490.63;;;8.04;52.05
71344;BME280;59146;43.850;25.948;2023-02-18T01:25:11;101547.03;;;8.54;51.66
71344;BME280;59146;43.850;25.948;2023-02-18T01:27:36;101378.63;;;7.59;51.59
71344;BME280;59146;43.850;25.948;2023-02-18T01:30:04;101498.56;;;8.26;51.43
71344;BME280;59146;43.850;25.948;2023-02-18T01:32:30;101478.38;;;8.08;51.69
71344;BME280;59146;43.850;25.948;2023-02-18T01:34:56;101506.91;;;8.35;51.24
71344;BME280;59146;43.850;25.948;2023-02-18T01:37:21;101476.06;;;8.23;51.16
71344;BME280;59146;43.850;25.948;2023-02-18T01:39:47;101491.38;;;8.32;50.65
71344;BME280;59146;43.850;25.948;2023-02-18T01:42:20;101511.84;;;8.43;50.73
71344;BME280;59146;43.850;25.948;2023-02-18T01:44:47;101561.97;;;8.72;50.45
71344;BME280;59146;43.850;25.948;2023-02-18T01:47:15;101480.13;;;8.32;50.41
71344;BME280;59146;43.850;25.948;2023-02-18T01:49:41;101498.75;;;8.44;49.84
71344;BME280;59146;43.850;25.948;2023-02-18T01:52:13;101468.69;;;8.36;49.75
71344;BME280;59146;43.850;25.948;2023-02-18T01:54:43;101507.38;;;8.69;49.27
71344;BME280;59146;43.850;25.948;2023-02-18T01:57:13;101475.69;;;8.58;50.26
71344;BME280;59146;43.850;25.948;2023-02-18T02:00:00;101538.75;;;9.13;48.93
71344;BME280;59146;43.850;25.948;2023-02-18T02:02:29;101521.88;;;9.00;48.48
71344;BME280;59146;43.850;25.948;2023-02-18T02:04:56;101498.53;;;8.73;48.88
71344;BME280;59146;43.850;25.948;2023-02-18T02:07:23;101482.06;;;8.50;49.39
71344;BME280;59146;43.850;25.948;2023-02-18T02:09:51;101501.19;;;8.72;48.81
71344;BME280;59146;43.850;25.948;2023-02-18T02:25:51;101516.41;;;9.06;47.82
71344;BME280;59146;43.850;25.948;2023-02-18T02:28:36;101518.31;;;9.02;47.76
71344;BME280;59146;43.850;25.948;2023-02-18T02:36:49;101428.63;;;8.63;47.75
71344;BME280;59146;43.850;25.948;2023-02-18T02:42:16;101410.91;;;8.49;47.61
71344;BME280;59146;43.850;25.948;2023-02-18T02:44:51;101494.00;;;9.02;47.59
71344;BME280;59146;43.850;25.948;2023-02-18T02:47:27;101430.44;;;8.61;47.62
71344;BME280;59146;43.850;25.948;2023-02-18T02:50:00;101497.88;;;8.92;47.92
71344;BME280;59146;43.850;25.948;2023-02-18T02:52:29;101495.91;;;8.97;47.90
71344;BME280;59146;43.850;25.948;2023-02-18T02:54:56;101458.09;;;8.65;48.44
71344;BME280;59146;43.850;25.948;2023-02-18T02:59:54;101497.13;;;8.88;48.15
71344;BME280;59146;43.850;25.948;2023-02-18T03:11:08;101512.97;;;8.82;48.22
71344;BME280;59146;43.850;25.948;2023-02-18T03:13:50;101529.13;;;8.92;48.55
71344;BME280;59146;43.850;25.948;2023-02-18T03:16:23;101490.16;;;8.65;49.18
71344;BME280;59146;43.850;25.948;2023-02-18T03:18:56;101444.22;;;8.41;49.22
71344;BME280;59146;43.850;25.948;2023-02-18T03:21:28;101512.59;;;8.69;49.55
71344;BME280;59146;43.850;25.948;2023-02-18T03:24:06;101396.34;;;7.97;49.71
71344;BME280;59146;43.850;25.948;2023-02-18T03:26:36;101466.00;;;8.62;49.97
71344;BME280;59146;43.850;25.948;2023-02-18T03:29:06;101441.25;;;8.27;50.04
71344;BME280;59146;43.850;25.948;2023-02-18T03:31:35;101487.72;;;8.61;49.75
71344;BME280;59146;43.850;25.948;2023-02-18T03:34:06;101489.88;;;8.50;50.68
71344;BME280;59146;43.850;25.948;2023-02-18T03:36:33;101420.00;;;8.15;50.34
71344;BME280;59146;43.850;25.948;2023-02-18T03:39:20;101484.28;;;8.60;49.90
71344;BME280;59146;43.850;25.948;2023-02-18T03:41:47;101451.53;;;8.30;50.65
71344;BME280;59146;43.850;25.948;2023-02-18T03:44:13;101415.78;;;7.87;51.37
71344;BME280;59146;43.850;25.948;2023-02-18T03:46:41;101447.84;;;8.13;50.98
71344;BME280;59146;43.850;25.948;2023-02-18T03:49:11;101424.94;;;7.97;51.48
71344;BME280;59146;43.850;25.948;2023-02-18T03:51:38;101429.56;;;8.14;51.19
71344;BME280;59146;43.850;25.948;2023-02-18T03:54:03;101413.31;;;8.08;51.02
71344;BME280;59146;43.850;25.948;2023-02-18T03:56:28;101407.38;;;8.04;51.30
71344;BME280;59146;43.850;25.948;2023-02-18T03:58:54;101347.94;;;7.69;50.81
71344;BME280;59146;43.850;25.948;2023-02-18T04:01:19;101401.81;;;8.13;51.10
71344;BME280;59146;43.850;25.948;2023-02-18T04:03:45;101390.06;;;8.03;51.16
71344;BME280;59146;43.850;25.948;2023-02-18T04:06:10;101457.78;;;8.26;52.26
71344;BME280;59146;43.850;25.948;2023-02-18T04:08:36;101438.03;;;8.19;52.55
71344;BME280;59146;43.850;25.948;2023-02-18T04:11:02;101387.09;;;7.89;52.08
71344;BME280;59146;43.850;25.948;2023-02-18T04:13:27;101371.16;;;7.75;52.49
71344;BME280;59146;43.850;25.948;2023-02-18T04:15:53;101421.72;;;7.91;52.99
71344;BME280;59146;43.850;25.948;2023-02-18T04:18:18;101431.84;;;7.98;52.78
71344;BME280;59146;43.850;25.948;2023-02-18T04:20:44;101423.81;;;7.80;52.58
71344;BME280;59146;43.850;25.948;2023-02-18T04:23:13;101396.81;;;7.84;51.98
71344;BME280;59146;43.850;25.948;2023-02-18T04:25:38;101386.47;;;7.82;51.52
71344;BME280;59146;43.850;25.948;2023-02-18T04:28:04;101343.31;;;7.52;51.59
71344;BME280;59146;43.850;25.948;2023-02-18T04:30:30;101398.19;;;7.94;51.62
71344;BME280;59146;43.850;25.948;2023-02-18T04:32:55;101382.75;;;7.89;51.10
71344;BME280;59146;43.850;25.948;2023-02-18T04:35:21;101348.19;;;7.86;50.78
71344;BME280;59146;43.850;25.948;2023-02-18T04:37:46;101409.31;;;8.22;50.75
71344;BME280;59146;43.850;25.948;2023-02-18T04:40:12;101412.97;;;8.41;50.26
71344;BME280;59146;43.850;25.948;2023-02-18T04:42:38;101414.88;;;8.36;50.38
71344;BME280;59146;43.850;25.948;2023-02-18T04:45:04;101345.25;;;7.95;50.65
71344;BME280;59146;43.850;25.948;2023-02-18T04:47:29;101280.66;;;7.60;50.24
71344;BME280;59146;43.850;25.948;2023-02-18T04:49:55;101366.16;;;8.17;49.93
71344;BME280;59146;43.850;25.948;2023-02-18T04:52:20;101389.63;;;8.38;49.50
71344;BME280;59146;43.850;25.948;2023-02-18T04:54:46;101395.56;;;8.65;49.00
71344;BME280;59146;43.850;25.948;2023-02-18T04:57:11;101390.16;;;8.69;48.31
71344;BME280;59146;43.850;25.948;2023-02-18T04:59:37;101359.13;;;8.65;47.92
71344;BME280;59146;43.850;25.948;2023-02-18T05:02:03;101342.13;;;8.76;46.86
71344;BME280;59146;43.850;25.948;2023-02-18T05:04:28;101354.34;;;9.18;46.28
71344;BME280;59146;43.850;25.948;2023-02-18T05:06:54;101323.84;;;8.78;46.84
71344;BME280;59146;43.850;25.948;2023-02-18T05:09:19;101368.53;;;9.11;46.80
71344;BME280;59146;43.850;25.948;2023-02-18T05:11:45;101368.81;;;9.45;46.23
71344;BME280;59146;43.850;25.948;2023-02-18T05:14:12;101369.13;;;9.59;45.60
71344;BME280;59146;43.850;25.948;2023-02-18T05:16:37;101315.72;;;9.27;45.75
71344;BME280;59146;43.850;25.948;2023-02-18T05:19:02;101276.84;;;9.01;46.03
71344;BME280;59146;43.850;25.948;2023-02-18T05:21:28;101381.16;;;9.61;45.93
71344;BME280;59146;43.850;25.948;2023-02-18T05:23:53;101391.81;;;9.57;46.38
71344;BME280;59146;43.850;25.948;2023-02-18T05:26:19;101317.19;;;9.13;46.71
71344;BME280;59146;43.850;25.948;2023-02-18T05:28:44;101384.34;;;9.48;47.53
71344;BME280;59146;43.850;25.948;2023-02-18T05:31:09;101366.38;;;9.42;47.54
71344;BME280;59146;43.850;25.948;2023-02-18T05:33:35;101418.22;;;9.70;46.83
71344;BME280;59146;43.850;25.948;2023-02-18T05:36:00;101295.09;;;9.01;46.50
71344;BME280;59146;43.850;25.948;2023-02-18T05:38:26;101376.00;;;9.40;46.47
71344;BME280;59146;43.850;25.948;2023-02-18T05:40:51;101406.78;;;9.52;47.21
71344;BME280;59146;43.850;25.948;2023-02-18T05:43:17;101387.75;;;9.50;46.54
71344;BME280;59146;43.850;25.948;2023-02-18T05:45:42;101354.19;;;9.42;46.56
71344;BME280;59146;43.850;25.948;2023-02-18T05:48:07;101379.31;;;9.63;46.07
71344;BME280;59146;43.850;25.948;2023-02-18T05:50:33;101423.53;;;9.87;46.16
71344;BME280;59146;43.850;25.948;2023-02-18T05:52:59;101354.75;;;9.49;46.25
71344;BME280;59146;43.850;25.948;2023-02-18T05:55:24;101365.00;;;9.74;46.27
71344;BME280;59146;43.850;25.948;2023-02-18T05:57:50;101371.88;;;9.75;46.16
71344;BME280;59146;43.850;25.948;2023-02-18T06:00:17;101368.84;;;9.65;45.97
71344;BME280;59146;43.850;25.948;2023-02-18T06:02:43;101364.13;;;9.53;46.62
71344;BME280;59146;43.850;25.948;2023-02-18T06:05:08;101343.34;;;9.51;46.13
71344;BME280;59146;43.850;25.948;2023-02-18T06:07:34;101413.84;;;9.90;46.56
71344;BME280;59146;43.850;25.948;2023-02-18T06:09:59;101348.75;;;9.67;46.05
71344;BME280;59146;43.850;25.948;2023-02-18T06:12:25;101355.81;;;9.65;46.34
71344;BME280;59146;43.850;25.948;2023-02-18T06:14:50;101408.41;;;9.95;46.67
71344;BME280;59146;43.850;25.948;2023-02-18T06:17:15;101365.13;;;9.71;46.30
71344;BME280;59146;43.850;25.948;2023-02-18T06:19:43;101411.59;;;10.01;46.39
71344;BME280;59146;43.850;25.948;2023-02-18T06:22:09;101424.94;;;10.15;46.05
71344;BME280;59146;43.850;25.948;2023-02-18T06:24:35;101436.38;;;10.31;45.59
71344;BME280;59146;43.850;25.948;2023-02-18T06:27:01;101376.38;;;9.91;45.67
71344;BME280;59146;43.850;25.948;2023-02-18T06:29:27;101416.06;;;10.38;45.14
71344;BME280;59146;43.850;25.948;2023-02-18T06:31:54;101384.63;;;10.21;45.03
71344;BME280;59146;43.850;25.948;2023-02-18T06:34:19;101338.94;;;9.92;45.46
71344;BME280;59146;43.850;25.948;2023-02-18T06:36:45;101437.88;;;10.56;45.11
71344;BME280;59146;43.850;25.948;2023-02-18T06:39:10;101410.97;;;10.54;44.96
71344;BME280;59146;43.850;25.948;2023-02-18T06:41:36;101364.41;;;10.26;44.87
71344;BME280;59146;43.850;25.948;2023-02-18T06:44:01;101434.44;;;10.55;44.85
71344;BME280;59146;43.850;25.948;2023-02-18T06:46:27;101426.44;;;10.58;45.09
71344;BME280;59146;43.850;25.948;2023-02-18T06:48:52;101360.84;;;10.46;44.63
71344;BME280;59146;43.850;25.948;2023-02-18T06:51:17;101430.88;;;10.75;44.77
71344;BME280;59146;43.850;25.948;2023-02-18T06:53:44;101414.94;;;10.62;44.78
71344;BME280;59146;43.850;25.948;2023-02-18T06:56:10;101404.25;;;10.85;44.78
71344;BME280;59146;43.850;25.948;2023-02-18T06:58:35;101374.59;;;11.22;43.58
71344;BME280;59146;43.850;25.948;2023-02-18T07:01:01;101415.00;;;11.85;42.77
71344;BME280;59146;43.850;25.948;2023-02-18T07:03:26;101401.06;;;11.67;42.04
71344;BME280;59146;43.850;25.948;2023-02-18T07:05:52;101408.00;;;11.51;43.33
71344;BME280;59146;43.850;25.948;2023-02-18T07:08:17;101351.94;;;11.21;43.35
71344;BME280;59146;43.850;25.948;2023-02-18T07:10:42;101405.50;;;11.65;42.78
71344;BME280;59146;43.850;25.948;2023-02-18T07:13:08;101365.63;;;11.94;42.03
71344;BME280;59146;43.850;25.948;2023-02-18T07:15:34;101362.25;;;11.92;41.63
71344;BME280;59146;43.850;25.948;2023-02-18T07:17:59;101413.63;;;12.11;42.25
71344;BME280;59146;43.850;25.948;2023-02-18T07:20:25;101426.28;;;12.03;42.81
71344;BME280;59146;43.850;25.948;2023-02-18T07:22:51;101421.94;;;11.86;43.01
71344;BME280;59146;43.850;25.948;2023-02-18T07:25:16;101447.53;;;12.14;42.74
71344;BME280;59146;43.850;25.948;2023-02-18T07:27:42;101442.31;;;12.14;42.96
71344;BME280;59146;43.850;25.948;2023-02-18T07:30:08;101371.50;;;11.82;42.91
71344;BME280;59146;43.850;25.948;2023-02-18T07:32:34;101431.47;;;12.37;42.72
71344;BME280;59146;43.850;25.948;2023-02-18T07:34:59;101356.41;;;11.87;42.74
71344;BME280;59146;43.850;25.948;2023-02-18T07:37:25;101401.84;;;12.19;42.67
71344;BME280;59146;43.850;25.948;2023-02-18T07:39:50;101396.81;;;11.99;43.11
71344;BME280;59146;43.850;25.948;2023-02-18T07:42:15;101411.16;;;12.25;43.00
71344;BME280;59146;43.850;25.948;2023-02-18T07:44:41;101355.69;;;12.01;42.74
71344;BME280;59146;43.850;25.948;2023-02-18T07:47:07;101384.38;;;12.51;41.23
71344;BME280;59146;43.850;25.948;2023-02-18T07:49:34;101354.13;;;12.30;41.86
71344;BME280;59146;43.850;25.948;2023-02-18T07:52:00;101352.78;;;12.23;41.25
71344;BME280;59146;43.850;25.948;2023-02-18T07:54:26;101414.59;;;12.58;41.36
71344;BME280;59146;43.850;25.948;2023-02-18T07:56:52;101360.97;;;12.17;41.61
71344;BME280;59146;43.850;25.948;2023-02-18T07:59:19;101397.41;;;12.37;41.96
71344;BME280;59146;43.850;25.948;2023-02-18T08:01:44;101374.09;;;12.48;41.50
71344;BME280;59146;43.850;25.948;2023-02-18T08:04:10;101413.41;;;12.79;41.73
71344;BME280;59146;43.850;25.948;2023-02-18T08:06:40;101335.09;;;12.57;41.12
71344;BME280;59146;43.850;25.948;2023-02-18T08:09:07;101354.72;;;12.35;41.42
71344;BME280;59146;43.850;25.948;2023-02-18T08:11:32;101345.28;;;12.48;41.49
71344;BME280;59146;43.850;25.948;2023-02-18T08:13:58;101320.41;;;12.55;40.67
71344;BME280;59146;43.850;25.948;2023-02-18T08:16:23;101391.84;;;12.74;41.69
71344;BME280;59146;43.850;25.948;2023-02-18T08:18:50;101391.66;;;12.93;41.49
71344;BME280;59146;43.850;25.948;2023-02-18T08:21:17;101336.13;;;12.55;41.59
71344;BME280;59146;43.850;25.948;2023-02-18T08:23:43;101389.06;;;12.77;42.06
71344;BME280;59146;43.850;25.948;2023-02-18T08:26:09;101356.66;;;12.78;41.98
71344;BME280;59146;43.850;25.948;2023-02-18T08:28:35;101410.88;;;12.93;42.18
71344;BME280;59146;43.850;25.948;2023-02-18T08:31:01;101378.22;;;12.67;42.49
71344;BME280;59146;43.850;25.948;2023-02-18T08:33:26;101397.44;;;12.68;42.45
71344;BME280;59146;43.850;25.948;2023-02-18T08:35:54;101326.00;;;12.64;41.86
71344;BME280;59146;43.850;25.948;2023-02-18T08:38:22;101334.75;;;12.79;41.85
71344;BME280;59146;43.850;25.948;2023-02-18T08:40:48;101396.22;;;13.20;41.76
71344;BME280;59146;43.850;25.948;2023-02-18T08:43:15;101328.47;;;12.97;41.21
71344;BME280;59146;43.850;25.948;2023-02-18T08:45:43;101327.34;;;13.01;41.32
71344;BME280;59146;43.850;25.948;2023-02-18T08:48:10;101338.47;;;13.06;41.30
71344;BME280;59146;43.850;25.948;2023-02-18T08:50:36;101388.81;;;13.42;41.39
71344;BME280;59146;43.850;25.948;2023-02-18T08:53:02;101289.44;;;12.77;41.31
71344;BME280;59146;43.850;25.948;2023-02-18T08:55:32;101319.78;;;12.81;41.61
71344;BME280;59146;43.850;25.948;2023-02-18T08:57:58;101366.38;;;13.07;41.82
71344;BME280;59146;43.850;25.948;2023-02-18T09:00:24;101328.47;;;12.97;41.25
71344;BME280;59146;43.850;25.948;2023-02-18T09:02:50;101296.72;;;12.72;41.26
71344;BME280;59146;43.850;25.948;2023-02-18T09:05:17;101348.34;;;13.17;40.67
71344;BME280;59146;43.850;25.948;2023-02-18T09:07:42;101358.88;;;13.31;40.82
71344;BME280;59146;43.850;25.948;2023-02-18T09:10:09;101358.78;;;13.32;40.89
71344;BME280;59146;43.850;25.948;2023-02-18T09:12:34;101285.53;;;12.84;41.19
71344;BME280;59146;43.850;25.948;2023-02-18T09:15:00;101299.16;;;13.20;39.91
71344;BME280;59146;43.850;25.948;2023-02-18T09:17:26;101300.16;;;12.88;40.68
71344;BME280;59146;43.850;25.948;2023-02-18T09:19:52;101358.38;;;13.24;41.10
71344;BME280;59146;43.850;25.948;2023-02-18T09:22:17;101364.00;;;13.18;41.10
71344;BME280;59146;43.850;25.948;2023-02-18T09:24:43;101333.47;;;13.17;41.36
71344;BME280;59146;43.850;25.948;2023-02-18T09:27:09;101377.84;;;13.36;41.53
71344;BME280;59146;43.850;25.948;2023-02-18T09:29:37;101359.72;;;13.31;41.39
71344;BME280;59146;43.850;25.948;2023-02-18T09:32:03;101274.88;;;12.87;41.25
71344;BME280;59146;43.850;25.948;2023-02-18T09:34:29;101356.75;;;13.51;41.41
71344;BME280;59146;43.850;25.948;2023-02-18T09:36:55;101354.28;;;13.34;41.34
71344;BME280;59146;43.850;25.948;2023-02-18T09:39:20;101292.56;;;13.13;41.60
71344;BME280;59146;43.850;25.948;2023-02-18T09:41:56;101314.16;;;13.32;41.43
71344;BME280;59146;43.850;25.948;2023-02-18T09:44:50;101379.50;;;13.67;41.50
71344;BME280;59146;43.850;25.948;2023-02-18T09:47:40;101350.97;;;13.61;40.84
71344;BME280;59146;43.850;25.948;2023-02-18T09:50:13;101324.50;;;13.35;40.40
71344;BME280;59146;43.850;25.948;2023-02-18T09:52:43;101368.88;;;13.54;41.58
71344;BME280;59146;43.850;25.948;2023-02-18T09:57:46;101360.94;;;13.84;40.55
71344;BME280;59146;43.850;25.948;2023-02-18T10:00:15;101380.53;;;13.78;40.60
71344;BME280;59146;43.850;25.948;2023-02-18T10:02:56;101366.19;;;13.84;40.46
71344;BME280;59146;43.850;25.948;2023-02-18T10:05:23;101365.56;;;13.94;40.11
71344;BME280;59146;43.850;25.948;2023-02-18T10:07:51;101355.59;;;13.99;40.38
71344;BME280;59146;43.850;25.948;2023-02-18T10:12:59;101336.72;;;13.65;40.43
71344;BME280;59146;43.850;25.948;2023-02-18T10:15:28;101338.72;;;13.75;40.07
71344;BME280;59146;43.850;25.948;2023-02-18T10:17:55;101346.97;;;13.83;40.40
71344;BME280;59146;43.850;25.948;2023-02-18T10:20:23;101290.78;;;13.43;40.89
71344;BME280;59146;43.850;25.948;2023-02-18T10:22:52;101319.97;;;13.53;41.15
71344;BME280;59146;43.850;25.948;2023-02-18T10:25:20;101269.66;;;13.31;41.07
71344;BME280;59146;43.850;25.948;2023-02-18T10:27:47;101247.53;;;13.21;40.86
71344;BME280;59146;43.850;25.948;2023-02-18T10:32:42;101353.19;;;13.82;41.36
71344;BME280;59146;43.850;25.948;2023-02-18T10:35:21;101326.25;;;13.93;40.96
71344;BME280;59146;43.850;25.948;2023-02-18T10:43:35;101257.41;;;13.45;41.60
71344;BME280;59146;43.850;25.948;2023-02-18T10:46:19;101228.59;;;13.16;41.53
71344;BME280;59146;43.850;25.948;2023-02-18T10:51:28;101322.69;;;13.66;42.51
71344;BME280;59146;43.850;25.948;2023-02-18T10:53:55;101287.03;;;13.47;42.34
71344;BME280;59146;43.850;25.948;2023-02-18T10:56:48;101325.84;;;13.85;42.32
71344;BME280;59146;43.850;25.948;2023-02-18T10:59:31;101310.09;;;13.71;42.29
71344;BME280;59146;43.850;25.948;2023-02-18T11:02:01;101243.69;;;13.26;42.30
71344;BME280;59146;43.850;25.948;2023-02-18T11:04:33;101125.81;;;12.51;42.79
71344;BME280;59146;43.850;25.948;2023-02-18T11:07:21;101303.72;;;13.46;43.03
71344;BME280;59146;43.850;25.948;2023-02-18T11:09:54;101300.91;;;13.49;42.81
71344;BME280;59146;43.850;25.948;2023-02-18T11:12:28;101295.09;;;13.44;43.20
71344;BME280;59146;43.850;25.948;2023-02-18T11:17:36;101237.84;;;13.07;43.43
71344;BME280;59146;43.850;25.948;2023-02-18T11:20:20;101244.44;;;13.14;43.41
71344;BME280;59146;43.850;25.948;2023-02-18T11:22:46;101301.56;;;13.53;43.18
71344;BME280;59146;43.850;25.948;2023-02-18T11:27:50;101247.19;;;13.27;43.85
71344;BME280;59146;43.850;25.948;2023-02-18T11:30:31;101230.41;;;13.15;43.96
71344;BME280;59146;43.850;25.948;2023-02-18T11:33:09;101225.44;;;13.11;43.94
71344;BME280;59146;43.850;25.948;2023-02-18T11:35:38;101261.16;;;13.41;44.08
71344;BME280;59146;43.850;25.948;2023-02-18T11:38:23;101287.22;;;13.44;44.61
71344;BME280;59146;43.850;25.948;2023-02-18T11:40:54;101275.41;;;13.51;44.35
71344;BME280;59146;43.850;25.948;2023-02-18T11:43:20;101196.66;;;13.09;44.17
71344;BME280;59146;43.850;25.948;2023-02-18T11:45:46;101212.88;;;13.16;44.35
71344;BME280;59146;43.850;25.948;2023-02-18T11:48:16;101229.44;;;13.16;43.84
71344;BME280;59146;43.850;25.948;2023-02-18T11:50:43;101251.50;;;13.28;44.34
71344;BME280;59146;43.850;25.948;2023-02-18T11:53:29;101268.84;;;13.59;44.09
71344;BME280;59146;43.850;25.948;2023-02-18T11:56:04;101203.06;;;13.19;44.12
71344;BME280;59146;43.850;25.948;2023-02-18T11:58:45;101200.88;;;13.12;44.25
71344;BME280;59146;43.850;25.948;2023-02-18T12:06:38;101201.53;;;13.43;44.22
71344;BME280;59146;43.850;25.948;2023-02-18T12:11:55;101236.88;;;13.66;44.77
71344;BME280;59146;43.850;25.948;2023-02-18T12:14:22;101222.81;;;13.67;44.61
71344;BME280;59146;43.850;25.948;2023-02-18T12:28:18;101156.84;;;13.59;44.79
71344;BME280;59146;43.850;25.948;2023-02-18T12:46:41;101218.72;;;14.04;45.78
71344;BME280;59146;43.850;25.948;2023-02-18T13:05:37;101202.81;;;13.93;46.89
71344;BME280;59146;43.850;25.948;2023-02-18T13:08:36;101203.91;;;14.03;46.93
71344;BME280;59146;43.850;25.948;2023-02-18T13:13:41;101202.97;;;14.04;46.91
71344;BME280;59146;43.850;25.948;2023-02-18T13:16:12;101152.31;;;13.75;47.35
71344;BME280;59146;43.850;25.948;2023-02-18T13:18:43;101200.78;;;14.10;47.31
71344;BME280;59146;43.850;25.948;2023-02-18T13:21:14;101136.84;;;13.71;47.35
71344;BME280;59146;43.850;25.948;2023-02-18T13:23:57;101201.81;;;14.08;47.31
71344;BME280;59146;43.850;25.948;2023-02-18T13:26:24;101111.78;;;13.79;47.08
71344;BME280;59146;43.850;25.948;2023-02-18T13:31:51;101137.25;;;13.91;46.96
71344;BME280;59146;43.850;25.948;2023-02-18T13:39:58;101144.78;;;14.10;45.67
71344;BME280;59146;43.850;25.948;2023-02-18T13:47:43;101195.56;;;14.37;45.90
71344;BME280;59146;43.850;25.948;2023-02-18T13:50:20;101193.09;;;14.48;45.52
71344;BME280;59146;43.850;25.948;2023-02-18T13:52:50;101138.38;;;14.14;45.40
71344;BME280;59146;43.850;25.948;2023-02-18T13:55:20;101087.06;;;13.96;45.02
71344;BME280;59146;43.850;25.948;2023-02-18T13:57:48;101143.59;;;14.28;44.83
71344;BME280;59146;43.850;25.948;2023-02-18T14:00:23;101128.28;;;14.08;45.23
71344;BME280;59146;43.850;25.948;2023-02-18T14:02:58;101126.09;;;14.14;45.05
71344;BME280;59146;43.850;25.948;2023-02-18T14:05:25;101175.66;;;14.47;45.24
71344;BME280;59146;43.850;25.948;2023-02-18T14:08:11;101171.88;;;14.51;45.25
71344;BME280;59146;43.850;25.948;2023-02-18T14:10:38;101180.19;;;14.58;45.02
71344;BME280;59146;43.850;25.948;2023-02-18T14:13:20;101169.31;;;14.50;45.20
71344;BME280;59146;43.850;25.948;2023-02-18T14:15:56;101165.50;;;14.41;45.48
71344;BME280;59146;43.850;25.948;2023-02-18T14:18:25;101177.91;;;14.39;45.92
71344;BME280;59146;43.850;25.948;2023-02-18T14:20:50;101153.72;;;14.34;46.08
71344;BME280;59146;43.850;25.948;2023-02-18T14:25:50;101178.50;;;14.57;45.91
71344;BME280;59146;43.850;25.948;2023-02-18T14:36:59;101195.94;;;14.45;47.14
71344;BME280;59146;43.850;25.948;2023-02-18T14:42:41;101198.16;;;14.51;46.85
71344;BME280;59146;43.850;25.948;2023-02-18T14:45:21;101198.91;;;14.53;46.79
71344;BME280;59146;43.850;25.948;2023-02-18T14:50:38;101189.31;;;14.52;46.78
71344;BME280;59146;43.850;25.948;2023-02-18T14:53:09;101130.28;;;14.31;47.02
71344;BME280;59146;43.850;25.948;2023-02-18T14:55:40;101132.22;;;14.27;46.75
71344;BME280;59146;43.850;25.948;2023-02-18T14:58:31;101176.28;;;14.51;47.04
71344;BME280;59146;43.850;25.948;2023-02-18T15:01:12;101110.84;;;14.07;46.97
71344;BME280;59146;43.850;25.948;2023-02-18T15:03:40;101124.28;;;14.02;47.46
71344;BME280;59146;43.850;25.948;2023-02-18T15:06:24;101157.72;;;14.13;47.57
71344;BME280;59146;43.850;25.948;2023-02-18T15:08:50;101166.16;;;14.18;47.84
71344;BME280;59146;43.850;25.948;2023-02-18T15:11:16;101121.41;;;13.93;47.93
71344;BME280;59146;43.850;25.948;2023-02-18T15:13:44;101113.56;;;13.79;47.96